createdAt,value
2023-03-22T00:00:13.446Z,57.10
2023-03-22T00:01:13.471Z,56.90
2023-03-22T00:02:13.477Z,55.80
2023-03-22T00:03:13.454Z,52.00
2023-03-22T00:04:13.561Z,55.40
2023-03-22T00:05:13.402Z,56.90
2023-03-22T00:06:13.403Z,58.10
2023-03-22T00:07:13.361Z,58.40
2023-03-22T00:08:13.360Z,63.10
2023-03-22T00:09:13.350Z,61.60
2023-03-22T00:10:13.347Z,60.80
2023-03-22T00:11:13.334Z,60.00
2023-03-22T00:12:13.284Z,61.60
2023-03-22T00:13:13.297Z,63.20
2023-03-22T00:14:13.304Z,63.50
2023-03-22T00:15:13.302Z,61.90
2023-03-22T00:16:13.329Z,61.90
2023-03-22T00:17:13.271Z,58.30
2023-03-22T00:18:13.282Z,62.50
2023-03-22T00:19:13.250Z,59.50
2023-03-22T00:20:13.212Z,61.30
2023-03-22T00:21:13.197Z,61.80
2023-03-22T00:22:13.212Z,61.50
2023-03-22T00:23:13.200Z,63.80
2023-03-22T00:24:13.177Z,60.00
2023-03-22T00:25:14.246Z,56.80
2023-03-22T00:26:13.137Z,57.80
2023-03-22T00:27:13.140Z,63.40
2023-03-22T00:28:13.149Z,66.70
2023-03-22T00:29:13.146Z,62.90
2023-03-22T00:30:13.127Z,67.30
2023-03-22T00:31:13.184Z,67.00
2023-03-22T00:32:13.066Z,63.00
2023-03-22T00:33:13.090Z,65.30
2023-03-22T00:34:13.095Z,65.60
2023-03-22T00:35:13.061Z,62.20
2023-03-22T00:36:13.069Z,63.00
2023-03-22T00:37:13.043Z,68.60
2023-03-22T00:38:13.033Z,64.10
2023-03-22T00:39:13.017Z,63.70
2023-03-22T00:40:12.989Z,64.90
2023-03-22T00:41:13.005Z,67.00
2023-03-22T00:42:12.989Z,64.80
2023-03-22T00:43:12.959Z,65.90
2023-03-22T00:44:13.011Z,67.30
2023-03-22T00:45:12.969Z,68.80
2023-03-22T00:46:13.008Z,73.40
2023-03-22T00:47:12.914Z,67.90
2023-03-22T00:48:12.966Z,69.60
2023-03-22T00:49:12.912Z,68.20
2023-03-22T00:50:12.865Z,65.50
2023-03-22T00:51:12.928Z,65.40
2023-03-22T00:52:12.862Z,72.60
2023-03-22T00:53:12.879Z,69.40
2023-03-22T00:54:12.876Z,74.80
2023-03-22T00:55:12.839Z,74.30
2023-03-22T00:56:12.832Z,71.90
2023-03-22T00:57:12.827Z,74.30
2023-03-22T00:58:12.815Z,77.10
2023-03-22T00:59:12.838Z,77.00
2023-03-22T01:00:12.815Z,75.90
2023-03-22T01:01:12.869Z,86.40
2023-03-22T01:02:12.839Z,80.90
2023-03-22T01:03:12.773Z,85.30
2023-03-22T01:04:12.754Z,78.60
2023-03-22T01:05:12.718Z,81.30
2023-03-22T01:06:12.759Z,87.10
2023-03-22T01:07:12.697Z,84.50
2023-03-22T01:08:12.668Z,81.30
2023-03-22T01:09:12.702Z,80.80
2023-03-22T01:10:12.664Z,84.60
2023-03-22T01:11:12.694Z,80.20
2023-03-22T01:12:12.682Z,85.80
2023-03-22T01:13:12.636Z,79.70
2023-03-22T01:14:12.628Z,81.30
2023-03-22T01:15:12.634Z,83.50
2023-03-22T01:16:12.772Z,85.90
2023-03-22T01:17:12.583Z,82.70
2023-03-22T01:18:12.598Z,76.30
2023-03-22T01:19:12.638Z,79.40
2023-03-22T01:20:12.555Z,81.30
2023-03-22T01:21:12.634Z,81.30
2023-03-22T01:22:12.569Z,81.10
2023-03-22T01:23:13.552Z,77.70
2023-03-22T01:24:12.539Z,90.50
2023-03-22T01:25:12.518Z,84.50
2023-03-22T01:26:12.537Z,83.70
2023-03-22T01:27:12.477Z,83.00
2023-03-22T01:28:12.492Z,79.40
2023-03-22T01:29:12.455Z,86.50
2023-03-22T01:30:12.497Z,80.00
2023-03-22T01:31:12.485Z,77.60
2023-03-22T01:32:12.420Z,78.70
2023-03-22T01:33:12.391Z,80.10
2023-03-22T01:34:12.463Z,85.30
2023-03-22T01:35:12.419Z,84.40
2023-03-22T01:36:12.454Z,86.00
2023-03-22T01:37:12.392Z,88.40
2023-03-22T01:38:12.356Z,87.30
2023-03-22T01:39:12.382Z,82.50
2023-03-22T01:40:12.347Z,87.30
2023-03-22T01:41:12.367Z,82.90
2023-03-22T01:42:12.342Z,87.10
2023-03-22T01:43:12.298Z,96.20
2023-03-22T01:44:12.339Z,88.70
2023-03-22T01:45:12.359Z,90.40
2023-03-22T01:46:12.432Z,87.80
2023-03-22T01:47:12.243Z,91.60
2023-03-22T01:48:12.374Z,92.90
2023-03-22T01:49:12.384Z,88.90
2023-03-22T01:50:12.253Z,88.00
2023-03-22T01:51:12.925Z,92.40
2023-03-22T01:52:12.213Z,92.00
2023-03-22T01:53:12.219Z,92.10
2023-03-22T01:54:12.206Z,95.60
2023-03-22T01:55:12.192Z,91.70
2023-03-22T01:56:13.188Z,96.90
2023-03-22T01:57:12.156Z,97.60
2023-03-22T01:58:12.192Z,97.50
2023-03-22T01:59:12.136Z,92.10
2023-03-22T02:00:12.169Z,93.20
2023-03-22T02:01:12.187Z,102.10
2023-03-22T02:02:12.109Z,93.30
2023-03-22T02:03:12.028Z,101.10
2023-03-22T02:04:12.136Z,99.10
2023-03-22T02:05:12.067Z,104.00
2023-03-22T02:06:12.090Z,102.30
2023-03-22T02:07:12.082Z,100.40
2023-03-22T02:08:12.041Z,104.10
2023-03-22T02:09:12.092Z,101.40
2023-03-22T02:10:12.023Z,97.00
2023-03-22T02:11:12.077Z,103.80
2023-03-22T02:12:11.984Z,102.70
2023-03-22T02:13:12.079Z,110.90
2023-03-22T02:14:12.012Z,105.00
2023-03-22T02:15:11.984Z,108.00
2023-03-22T02:16:11.951Z,101.70
2023-03-22T02:17:11.882Z,103.60
2023-03-22T02:18:11.948Z,103.00
2023-03-22T02:19:11.921Z,111.60
2023-03-22T02:20:11.886Z,107.10
2023-03-22T02:21:11.864Z,114.90
2023-03-22T02:22:11.911Z,110.70
2023-03-22T02:23:11.834Z,108.70
2023-03-22T02:24:11.811Z,118.30
2023-03-22T02:25:11.797Z,118.20
2023-03-22T02:26:11.861Z,119.40
2023-03-22T02:27:11.775Z,118.40
2023-03-22T02:28:11.773Z,116.50
2023-03-22T02:29:11.775Z,116.60
2023-03-22T02:30:11.758Z,121.00
2023-03-22T02:31:11.776Z,117.30
2023-03-22T02:32:12.762Z,120.00
2023-03-22T02:33:11.700Z,113.40
2023-03-22T02:34:11.758Z,116.80
2023-03-22T02:35:12.365Z,124.70
2023-03-22T02:36:11.708Z,119.10
2023-03-22T02:37:11.682Z,115.30
2023-03-22T02:38:11.656Z,118.00
2023-03-22T02:39:11.632Z,118.00
2023-03-22T02:40:11.624Z,128.80
2023-03-22T02:41:11.637Z,122.50
2023-03-22T02:42:11.603Z,122.20
2023-03-22T02:43:11.706Z,123.70
2023-03-22T02:44:11.578Z,123.00
2023-03-22T02:45:11.596Z,130.00
2023-03-22T02:46:11.567Z,134.10
2023-03-22T02:47:11.564Z,130.60
2023-03-22T02:48:11.577Z,130.80
2023-03-22T02:49:11.523Z,127.70
2023-03-22T02:50:11.507Z,131.00
2023-03-22T02:51:11.508Z,123.80
2023-03-22T02:52:11.510Z,127.90
2023-03-22T02:53:11.496Z,123.80
2023-03-22T02:54:11.487Z,128.90
2023-03-22T02:55:11.480Z,122.30
2023-03-22T02:56:11.483Z,131.00
2023-03-22T02:57:11.472Z,132.20
2023-03-22T02:58:11.423Z,122.20
2023-03-22T02:59:11.520Z,128.90
2023-03-22T03:00:11.409Z,128.60
2023-03-22T03:01:11.452Z,131.90
2023-03-22T03:02:11.489Z,137.10
2023-03-22T03:03:11.547Z,133.70
2023-03-22T03:04:11.386Z,135.10
2023-03-22T03:05:11.342Z,134.80
2023-03-22T03:06:11.322Z,129.90
2023-03-22T03:07:11.365Z,142.10
2023-03-22T03:08:11.316Z,135.70
2023-03-22T03:09:11.297Z,138.20
2023-03-22T03:10:11.322Z,142.40
2023-03-22T03:11:11.264Z,131.90
2023-03-22T03:12:11.289Z,141.60
2023-03-22T03:13:11.261Z,134.20
2023-03-22T03:14:11.229Z,143.00
2023-03-22T03:15:11.313Z,135.10
2023-03-22T03:16:11.286Z,142.80
2023-03-22T03:17:11.205Z,139.50
2023-03-22T03:18:11.223Z,145.70
2023-03-22T03:19:11.203Z,140.60
2023-03-22T03:20:11.215Z,135.50
2023-03-22T03:21:11.199Z,131.60
2023-03-22T03:22:11.180Z,133.70
2023-03-22T03:23:11.160Z,131.00
2023-03-22T03:24:11.133Z,129.20
2023-03-22T03:25:11.120Z,133.10
2023-03-22T03:26:11.132Z,138.40
2023-03-22T03:27:11.240Z,130.70
2023-03-22T03:28:11.109Z,139.10
2023-03-22T03:29:11.083Z,129.40
2023-03-22T03:30:11.105Z,132.90
2023-03-22T03:31:11.091Z,135.70
2023-03-22T03:32:11.080Z,128.10
2023-03-22T03:33:11.073Z,146.70
2023-03-22T03:34:11.070Z,137.20
2023-03-22T03:35:11.056Z,132.20
2023-03-22T03:36:10.989Z,135.00
2023-03-22T03:37:11.015Z,129.80
2023-03-22T03:38:11.020Z,141.70
2023-03-22T03:39:10.969Z,138.50
2023-03-22T03:40:11.024Z,137.90
2023-03-22T03:41:10.939Z,141.40
2023-03-22T03:42:10.936Z,137.00
2023-03-22T03:43:10.956Z,149.20
2023-03-22T03:44:10.936Z,140.30
2023-03-22T03:45:10.927Z,140.30
2023-03-22T03:46:10.907Z,140.20
2023-03-22T03:47:10.889Z,141.60
2023-03-22T03:48:10.889Z,153.20
2023-03-22T03:49:10.865Z,144.50
2023-03-22T03:50:10.858Z,144.40
2023-03-22T03:51:10.845Z,149.50
2023-03-22T03:52:10.856Z,146.40
2023-03-22T03:53:10.880Z,157.30
2023-03-22T03:54:10.832Z,152.70
2023-03-22T03:55:10.795Z,144.20
2023-03-22T03:56:10.814Z,151.60
2023-03-22T03:57:10.831Z,156.90
2023-03-22T03:58:10.755Z,156.30
2023-03-22T03:59:10.784Z,158.20
2023-03-22T04:00:10.889Z,144.10
2023-03-22T04:01:10.791Z,146.80
2023-03-22T04:02:10.835Z,150.30
2023-03-22T04:03:10.770Z,153.90
2023-03-22T04:04:10.833Z,162.20
2023-03-22T04:05:10.743Z,151.80
2023-03-22T04:06:11.710Z,150.10
2023-03-22T04:07:10.740Z,162.00
2023-03-22T04:08:10.713Z,157.40
2023-03-22T04:09:10.709Z,156.70
2023-03-22T04:10:10.690Z,162.20
2023-03-22T04:11:10.795Z,166.70
2023-03-22T04:12:10.658Z,160.20
2023-03-22T04:13:10.765Z,156.70
2023-03-22T04:14:10.627Z,166.10
2023-03-22T04:15:10.922Z,165.20
2023-03-22T04:16:10.633Z,166.60
2023-03-22T04:17:11.269Z,170.40
2023-03-22T04:18:10.659Z,163.60
2023-03-22T04:19:10.598Z,161.50
2023-03-22T04:20:10.593Z,169.80
2023-03-22T04:21:10.657Z,167.20
2023-03-22T04:22:10.592Z,164.50
2023-03-22T04:23:10.528Z,157.30
2023-03-22T04:24:10.553Z,160.30
2023-03-22T04:25:10.535Z,165.00
2023-03-22T04:26:10.517Z,164.10
2023-03-22T04:27:10.498Z,167.40
2023-03-22T04:28:10.520Z,163.20
2023-03-22T04:29:10.510Z,169.90
2023-03-22T04:30:10.518Z,178.70
2023-03-22T04:31:10.680Z,164.80
2023-03-22T04:32:10.441Z,170.00
2023-03-22T04:33:10.427Z,173.20
2023-03-22T04:34:10.441Z,164.00
2023-03-22T04:35:10.443Z,172.10
2023-03-22T04:36:10.427Z,171.40
2023-03-22T04:37:10.388Z,172.40
2023-03-22T04:38:10.408Z,166.40
2023-03-22T04:39:10.419Z,174.00
2023-03-22T04:40:10.364Z,180.60
2023-03-22T04:41:10.303Z,181.90
2023-03-22T04:42:10.368Z,185.50
2023-03-22T04:43:13.291Z,192.40
2023-03-22T04:44:10.312Z,189.40
2023-03-22T04:45:10.280Z,188.60
2023-03-22T04:46:10.387Z,188.70
2023-03-22T04:47:10.304Z,198.70
2023-03-22T04:48:10.316Z,204.90
2023-03-22T04:49:10.255Z,199.80
2023-03-22T04:50:10.267Z,199.60
2023-03-22T04:51:10.232Z,217.50
2023-03-22T04:52:10.259Z,211.70
2023-03-22T04:53:10.203Z,209.40
2023-03-22T04:54:10.204Z,205.20
2023-03-22T04:55:10.292Z,216.80
2023-03-22T04:56:10.372Z,216.30
2023-03-22T04:57:10.155Z,218.00
2023-03-22T04:58:10.289Z,223.10
2023-03-22T04:59:10.159Z,234.70
2023-03-22T05:00:10.119Z,234.10
2023-03-22T05:01:10.141Z,234.40
2023-03-22T05:02:10.750Z,238.90
2023-03-22T05:03:10.187Z,232.40
2023-03-22T05:04:10.132Z,228.50
2023-03-22T05:05:10.107Z,243.70
2023-03-22T05:06:10.048Z,238.30
2023-03-22T05:07:10.011Z,247.90
2023-03-22T05:08:09.972Z,227.00
2023-03-22T05:09:10.384Z,208.00
2023-03-22T05:10:09.993Z,232.30
2023-03-22T05:11:09.952Z,237.10
2023-03-22T05:12:10.005Z,236.50
2023-03-22T05:13:09.935Z,235.70
2023-03-22T05:14:09.992Z,250.60
2023-03-22T05:15:09.903Z,246.10
2023-03-22T05:16:10.109Z,233.70
2023-03-22T05:17:09.906Z,236.10
2023-03-22T05:18:09.861Z,222.40
2023-03-22T05:19:09.855Z,238.00
2023-03-22T05:20:09.900Z,243.90
2023-03-22T05:21:09.831Z,227.10
2023-03-22T05:22:09.825Z,236.10
2023-03-22T05:23:09.817Z,212.80
2023-03-22T05:24:09.820Z,214.40
2023-03-22T05:25:09.816Z,227.50
2023-03-22T05:26:09.817Z,238.70
2023-03-22T05:27:09.786Z,232.60
2023-03-22T05:28:09.776Z,223.50
2023-03-22T05:29:09.760Z,235.70
2023-03-22T05:30:09.796Z,230.70
2023-03-22T05:31:09.777Z,224.40
2023-03-22T05:32:09.751Z,229.50
2023-03-22T05:33:09.692Z,253.30
2023-03-22T05:34:09.717Z,232.50
2023-03-22T05:35:09.697Z,232.70
2023-03-22T05:36:10.341Z,240.50
2023-03-22T05:37:09.685Z,235.90
2023-03-22T05:38:10.256Z,233.30
2023-03-22T05:39:09.649Z,235.70
2023-03-22T05:40:09.622Z,249.30
2023-03-22T05:41:09.678Z,231.00
2023-03-22T05:42:09.611Z,228.70
2023-03-22T05:43:09.620Z,236.90
2023-03-22T05:44:09.643Z,232.10
2023-03-22T05:45:09.644Z,232.70
2023-03-22T05:46:09.587Z,215.80
2023-03-22T05:47:09.592Z,217.80
2023-03-22T05:48:09.657Z,225.60
2023-03-22T05:49:11.714Z,220.00
2023-03-22T05:50:09.529Z,207.10
2023-03-22T05:51:09.526Z,213.10
2023-03-22T05:52:09.489Z,204.40
2023-03-22T05:53:09.530Z,209.40
2023-03-22T05:54:10.369Z,209.10
2023-03-22T05:55:10.272Z,200.30
2023-03-22T05:56:09.592Z,196.80
2023-03-22T05:57:09.480Z,208.50
2023-03-22T05:58:09.473Z,213.50
2023-03-22T05:59:09.474Z,194.00
2023-03-22T06:00:09.396Z,196.90
2023-03-22T06:01:09.507Z,186.70
2023-03-22T06:02:09.559Z,191.40
2023-03-22T06:03:09.423Z,186.00
2023-03-22T06:04:09.419Z,181.50
2023-03-22T06:05:09.366Z,188.60
2023-03-22T06:06:10.290Z,190.40
2023-03-22T06:07:09.354Z,176.50
2023-03-22T06:08:09.341Z,172.10
2023-03-22T06:09:16.726Z,169.90
2023-03-22T06:10:11.345Z,170.30
2023-03-22T06:11:09.296Z,169.90
2023-03-22T06:12:09.302Z,170.00
2023-03-22T06:13:09.843Z,171.00
2023-03-22T06:14:09.274Z,167.50
2023-03-22T06:15:09.272Z,161.40
2023-03-22T06:16:09.299Z,157.20
2023-03-22T06:17:09.240Z,156.30
2023-03-22T06:18:09.219Z,145.70
2023-03-22T06:19:09.237Z,157.90
2023-03-22T06:20:09.204Z,158.10
2023-03-22T06:21:09.245Z,147.10
2023-03-22T06:22:09.171Z,150.50
2023-03-22T06:23:09.180Z,135.20
2023-03-22T06:24:09.207Z,138.90
2023-03-22T06:25:09.150Z,136.60
2023-03-22T06:26:09.139Z,134.00
2023-03-22T06:27:09.149Z,127.20
2023-03-22T06:28:09.165Z,113.00
2023-03-22T06:29:09.087Z,116.60
2023-03-22T06:30:09.152Z,106.60
2023-03-22T06:31:09.256Z,106.60
2023-03-22T06:32:09.043Z,102.70
2023-03-22T06:33:09.050Z,102.50
2023-03-22T06:34:09.027Z,96.60
2023-03-22T06:35:09.025Z,96.90
2023-03-22T06:36:09.036Z,90.30
2023-03-22T06:37:08.979Z,94.60
2023-03-22T06:38:08.983Z,92.60
2023-03-22T06:39:08.973Z,85.10
2023-03-22T06:40:08.970Z,74.30
2023-03-22T06:41:08.955Z,85.50
2023-03-22T06:42:08.931Z,83.00
2023-03-22T06:43:08.924Z,77.80
2023-03-22T06:44:08.903Z,81.30
2023-03-22T06:45:09.047Z,79.70
2023-03-22T06:46:09.013Z,74.90
2023-03-22T06:47:08.894Z,72.20
2023-03-22T06:48:08.896Z,71.40
2023-03-22T06:49:08.878Z,73.60
2023-03-22T06:50:08.830Z,69.50
2023-03-22T06:51:08.859Z,72.90
2023-03-22T06:52:08.822Z,66.60
2023-03-22T06:53:08.863Z,66.70
2023-03-22T06:54:08.815Z,65.50
2023-03-22T06:55:08.935Z,62.60
2023-03-22T06:56:08.816Z,65.70
2023-03-22T06:57:08.791Z,67.10
2023-03-22T06:58:08.733Z,63.50
2023-03-22T06:59:08.755Z,57.70
2023-03-22T07:00:08.756Z,65.60
2023-03-22T07:01:08.735Z,65.30
2023-03-22T07:02:08.687Z,58.40
2023-03-22T07:03:08.753Z,57.80
2023-03-22T07:04:08.730Z,64.40
2023-03-22T07:05:08.676Z,59.60
2023-03-22T07:06:08.683Z,58.10
2023-03-22T07:07:08.662Z,61.50
2023-03-22T07:08:08.649Z,56.20
2023-03-22T07:09:08.657Z,57.00
2023-03-22T07:10:08.630Z,54.00
2023-03-22T07:11:08.614Z,51.30
2023-03-22T07:12:08.636Z,54.20
2023-03-22T07:13:08.615Z,47.60
2023-03-22T07:14:09.615Z,48.80
2023-03-22T07:15:08.549Z,45.40
2023-03-22T07:16:08.648Z,47.40
2023-03-22T07:17:08.567Z,45.60
2023-03-22T07:18:08.554Z,43.50
2023-03-22T07:19:08.546Z,44.10
2023-03-22T07:20:08.529Z,45.80
2023-03-22T07:21:08.529Z,39.10
2023-03-22T07:22:08.505Z,42.20
2023-03-22T07:23:08.486Z,39.30
2023-03-22T07:24:08.513Z,44.10
2023-03-22T07:25:08.489Z,43.70
2023-03-22T07:26:08.488Z,46.70
2023-03-22T07:27:08.473Z,36.00
2023-03-22T07:28:08.426Z,41.00
2023-03-22T07:29:08.422Z,39.00
2023-03-22T07:30:09.753Z,35.50
2023-03-22T07:31:09.402Z,35.90
2023-03-22T07:32:08.481Z,31.50
2023-03-22T07:33:08.427Z,36.50
2023-03-22T07:34:08.394Z,31.10
2023-03-22T07:35:08.380Z,32.00
2023-03-22T07:36:08.391Z,26.20
2023-03-22T07:37:08.368Z,30.40
2023-03-22T07:38:08.360Z,28.70
2023-03-22T07:39:08.345Z,26.70
2023-03-22T07:40:08.378Z,33.50
2023-03-22T07:41:08.291Z,26.30
2023-03-22T07:42:08.293Z,28.20
2023-03-22T07:43:08.292Z,25.80
2023-03-22T07:44:17.694Z,28.10
2023-03-22T07:45:10.275Z,24.60
2023-03-22T07:46:08.322Z,24.60
2023-03-22T07:47:08.230Z,28.80
2023-03-22T07:48:08.291Z,27.40
2023-03-22T07:49:08.271Z,25.00
2023-03-22T07:50:08.233Z,24.80
2023-03-22T07:51:08.241Z,22.50
2023-03-22T07:52:08.200Z,22.10
2023-03-22T07:53:08.161Z,24.40
2023-03-22T07:54:08.202Z,24.30
2023-03-22T07:55:40.573Z,22.60
2023-03-22T07:56:08.863Z,23.80
2023-03-22T07:57:08.160Z,25.60
2023-03-22T07:58:08.423Z,23.90
2023-03-22T07:59:08.309Z,26.50
2023-03-22T08:00:08.134Z,26.20
2023-03-22T08:01:08.247Z,24.70
2023-03-22T08:02:08.247Z,27.40
2023-03-22T08:03:08.369Z,24.40
2023-03-22T08:04:08.083Z,22.20
2023-03-22T08:05:08.041Z,22.50
2023-03-22T08:06:08.132Z,25.50
2023-03-22T08:07:08.106Z,25.60
2023-03-22T08:08:08.061Z,21.00
2023-03-22T08:09:08.065Z,24.50
2023-03-22T08:10:08.083Z,22.60
2023-03-22T08:11:08.040Z,26.60
2023-03-22T08:12:08.041Z,24.70
2023-03-22T08:13:08.157Z,23.40
2023-03-22T08:14:08.066Z,23.00
2023-03-22T08:15:07.985Z,23.00
2023-03-22T08:16:08.072Z,24.40
2023-03-22T08:17:07.955Z,25.50
2023-03-22T08:18:08.972Z,26.90
2023-03-22T08:19:07.949Z,23.60
2023-03-22T08:20:07.940Z,27.80
2023-03-22T08:21:07.917Z,21.10
2023-03-22T08:22:07.926Z,23.20
2023-03-22T08:23:08.028Z,22.60
2023-03-22T08:24:07.916Z,22.20
2023-03-22T08:25:07.897Z,24.40
2023-03-22T08:26:07.950Z,25.30
2023-03-22T08:27:07.862Z,21.00
2023-03-22T08:28:07.852Z,22.10
2023-03-22T08:29:07.986Z,24.30
2023-03-22T08:30:07.869Z,21.60
2023-03-22T08:31:08.330Z,25.10
2023-03-22T08:32:07.936Z,23.00
2023-03-22T08:33:07.795Z,23.30
2023-03-22T08:34:07.790Z,21.60
2023-03-22T08:35:07.856Z,18.30
2023-03-22T08:36:07.785Z,22.10
2023-03-22T08:37:07.808Z,24.40
2023-03-22T08:38:07.765Z,26.60
2023-03-22T08:39:07.711Z,23.10
2023-03-22T08:40:07.795Z,22.80
2023-03-22T08:41:07.764Z,20.70
2023-03-22T08:42:07.729Z,23.40
2023-03-22T08:43:07.813Z,20.50
2023-03-22T08:44:07.727Z,20.50
2023-03-22T08:45:07.629Z,21.70
2023-03-22T08:46:07.691Z,24.20
2023-03-22T08:47:07.661Z,19.40
2023-03-22T08:48:07.760Z,17.30
2023-03-22T08:49:07.621Z,20.30
2023-03-22T08:50:08.455Z,23.20
2023-03-22T08:51:07.921Z,20.70
2023-03-22T08:52:07.615Z,21.50
2023-03-22T08:53:07.677Z,18.50
2023-03-22T08:54:08.277Z,22.80
2023-03-22T08:55:07.649Z,17.60
2023-03-22T08:56:07.629Z,18.10
2023-03-22T08:57:07.556Z,19.30
2023-03-22T08:58:07.623Z,23.10
2023-03-22T08:59:07.571Z,19.70
2023-03-22T09:00:07.518Z,17.10
2023-03-22T09:01:07.687Z,18.10
2023-03-22T09:02:07.659Z,20.80
2023-03-22T09:03:07.503Z,17.60
2023-03-22T09:04:10.155Z,18.20
2023-03-22T09:05:08.464Z,20.00
2023-03-22T09:06:07.558Z,16.60
2023-03-22T09:07:07.414Z,15.50
2023-03-22T09:08:07.526Z,16.60
2023-03-22T09:09:07.594Z,15.30
2023-03-22T09:10:07.433Z,19.30
2023-03-22T09:11:07.434Z,17.60
2023-03-22T09:12:07.386Z,15.80
2023-03-22T09:13:07.463Z,16.90
2023-03-22T09:14:07.418Z,16.40
2023-03-22T09:15:07.887Z,15.90
2023-03-22T09:16:07.432Z,14.90
2023-03-22T09:17:07.377Z,15.10
2023-03-22T09:18:07.369Z,15.80
2023-03-22T09:19:07.341Z,15.10
2023-03-22T09:20:12.888Z,15.80
2023-03-22T09:21:09.351Z,16.30
2023-03-22T09:22:07.267Z,14.40
2023-03-22T09:23:07.317Z,14.10
2023-03-22T09:24:07.317Z,18.20
2023-03-22T09:25:07.225Z,15.00
2023-03-22T09:26:07.269Z,16.80
2023-03-22T09:27:07.274Z,14.90
2023-03-22T09:28:07.334Z,16.00
2023-03-22T09:29:07.228Z,14.60
2023-03-22T09:30:07.218Z,15.60
2023-03-22T09:31:07.237Z,11.60
2023-03-22T09:32:07.164Z,13.10
2023-03-22T09:33:07.180Z,13.50
2023-03-22T09:34:07.210Z,17.50
2023-03-22T09:35:07.208Z,15.60
2023-03-22T09:36:07.137Z,13.90
2023-03-22T09:37:07.081Z,14.80
2023-03-22T09:38:07.145Z,16.50
2023-03-22T09:39:07.138Z,17.70
2023-03-22T09:40:07.151Z,15.40
2023-03-22T09:41:07.112Z,17.30
2023-03-22T09:42:07.094Z,13.20
2023-03-22T09:43:07.120Z,12.50
2023-03-22T09:44:07.015Z,14.70
2023-03-22T09:45:07.036Z,18.50
2023-03-22T09:46:07.213Z,14.80
2023-03-22T09:47:07.012Z,15.20
2023-03-22T09:48:07.153Z,14.40
2023-03-22T09:49:06.992Z,14.70
2023-03-22T09:50:06.988Z,15.70
2023-03-22T09:51:06.907Z,13.10
2023-03-22T09:52:07.236Z,14.40
2023-03-22T09:53:06.918Z,13.10
2023-03-22T09:54:06.939Z,13.30
2023-03-22T09:55:06.875Z,15.70
2023-03-22T09:56:06.882Z,10.00
2023-03-22T09:57:06.878Z,15.70
2023-03-22T09:58:07.222Z,15.30
2023-03-22T09:59:06.873Z,13.10
2023-03-22T10:00:06.896Z,12.00
2023-03-22T10:01:07.052Z,11.90
2023-03-22T10:02:07.094Z,12.40
2023-03-22T10:03:06.831Z,13.20
2023-03-22T10:04:06.882Z,12.30
2023-03-22T10:05:06.780Z,14.10
2023-03-22T10:06:06.754Z,16.10
2023-03-22T10:07:06.783Z,15.90
2023-03-22T10:08:06.720Z,13.40
2023-03-22T10:09:06.742Z,12.50
2023-03-22T10:10:06.812Z,11.40
2023-03-22T10:11:06.739Z,15.80
2023-03-22T10:12:06.712Z,12.50
2023-03-22T10:13:06.739Z,11.30
2023-03-22T10:14:06.664Z,14.30
2023-03-22T10:15:06.671Z,13.20
2023-03-22T10:16:06.704Z,11.30
2023-03-22T10:17:06.617Z,12.80
2023-03-22T10:18:06.679Z,10.20
2023-03-22T10:19:06.640Z,12.90
2023-03-22T10:20:06.578Z,11.70
2023-03-22T10:21:06.574Z,10.30
2023-03-22T10:22:06.591Z,13.30
2023-03-22T10:23:06.630Z,9.50
2023-03-22T10:24:06.625Z,10.50
2023-03-22T10:25:06.538Z,11.30
2023-03-22T10:26:06.514Z,10.50
2023-03-22T10:27:06.475Z,8.10
2023-03-22T10:28:06.565Z,14.20
2023-03-22T10:29:06.503Z,9.10
2023-03-22T10:30:06.518Z,11.60
2023-03-22T10:31:06.563Z,13.50
2023-03-22T10:32:06.419Z,14.20
2023-03-22T10:33:06.441Z,9.00
2023-03-22T10:34:06.466Z,14.20
2023-03-22T10:35:06.444Z,8.40
2023-03-22T10:36:06.461Z,10.40
2023-03-22T10:37:06.430Z,8.60
2023-03-22T10:38:06.455Z,10.80
2023-03-22T10:39:06.360Z,7.70
2023-03-22T10:40:06.397Z,8.70
2023-03-22T10:41:06.438Z,9.10
2023-03-22T10:42:06.302Z,12.00
2023-03-22T10:43:06.349Z,10.30
2023-03-22T10:44:06.404Z,8.20
2023-03-22T10:45:06.346Z,12.30
2023-03-22T10:46:06.307Z,8.80
2023-03-22T10:47:06.311Z,8.00
2023-03-22T10:48:06.308Z,7.70
2023-03-22T10:49:06.281Z,11.10
2023-03-22T10:50:06.262Z,9.10
2023-03-22T10:51:06.314Z,9.00
2023-03-22T10:52:06.294Z,11.70
2023-03-22T10:53:06.285Z,10.00
2023-03-22T10:54:06.262Z,8.00
2023-03-22T10:55:06.246Z,9.00
2023-03-22T10:56:06.326Z,9.90
2023-03-22T10:57:06.210Z,10.20
2023-03-22T10:58:06.194Z,12.50
2023-03-22T10:59:06.281Z,13.80
2023-03-22T11:00:06.267Z,12.30
2023-03-22T11:01:06.335Z,9.80
2023-03-22T11:02:06.772Z,8.30
2023-03-22T11:03:06.158Z,12.20
2023-03-22T11:04:06.142Z,10.40
2023-03-22T11:05:06.177Z,8.50
2023-03-22T11:06:06.137Z,10.20
2023-03-22T11:07:06.104Z,8.60
2023-03-22T11:08:06.044Z,8.60
2023-03-22T11:09:06.031Z,8.50
2023-03-22T11:10:06.029Z,9.80
2023-03-22T11:11:05.983Z,8.10
2023-03-22T11:12:06.090Z,8.70
2023-03-22T11:13:06.061Z,9.30
2023-03-22T11:14:05.991Z,9.70
2023-03-22T11:15:05.960Z,9.50
2023-03-22T11:16:06.003Z,10.20
2023-03-22T11:17:05.952Z,9.10
2023-03-22T11:18:05.967Z,8.00
2023-03-22T11:19:05.981Z,9.40
2023-03-22T11:20:07.649Z,9.80
2023-03-22T11:21:06.921Z,9.20
2023-03-22T11:22:05.930Z,7.40
2023-03-22T11:23:05.866Z,8.80
2023-03-22T11:24:05.855Z,7.60
2023-03-22T11:25:05.874Z,7.90
2023-03-22T11:26:05.873Z,6.70
2023-03-22T11:27:05.878Z,8.70
2023-03-22T11:28:06.409Z,8.40
2023-03-22T11:29:05.799Z,7.30
2023-03-22T11:30:05.808Z,9.70
2023-03-22T11:31:06.811Z,9.20
2023-03-22T11:32:05.868Z,8.80
2023-03-22T11:33:05.826Z,8.70
2023-03-22T11:34:05.788Z,10.70
2023-03-22T11:35:06.059Z,7.50
2023-03-22T11:36:05.769Z,6.20
2023-03-22T11:37:05.737Z,9.50
2023-03-22T11:38:05.679Z,8.10
2023-03-22T11:39:05.721Z,7.90
2023-03-22T11:40:05.747Z,6.90
2023-03-22T11:41:05.745Z,9.90
2023-03-22T11:42:05.693Z,8.20
2023-03-22T11:43:05.673Z,8.00
2023-03-22T11:44:05.633Z,6.30
2023-03-22T11:45:05.625Z,8.20
2023-03-22T11:46:05.676Z,8.70
2023-03-22T11:47:05.701Z,6.80
2023-03-22T11:48:05.856Z,7.80
2023-03-22T11:49:05.748Z,6.60
2023-03-22T11:50:05.756Z,12.70
2023-03-22T11:51:05.583Z,9.30
2023-03-22T11:52:05.573Z,7.90
2023-03-22T11:53:05.554Z,9.30
2023-03-22T11:54:05.541Z,10.20
2023-03-22T11:55:05.534Z,8.40
2023-03-22T11:56:05.539Z,11.00
2023-03-22T11:57:05.916Z,9.30
2023-03-22T11:58:05.491Z,10.30
2023-03-22T11:59:05.458Z,11.10
2023-03-22T12:00:06.829Z,10.70
2023-03-22T12:01:05.466Z,7.60
2023-03-22T12:02:07.814Z,8.00
2023-03-22T12:03:07.301Z,9.80
2023-03-22T12:04:05.494Z,11.40
2023-03-22T12:05:05.560Z,8.70
2023-03-22T12:06:05.488Z,9.50
2023-03-22T12:07:05.366Z,9.00
2023-03-22T12:08:05.374Z,10.20
2023-03-22T12:09:05.399Z,7.80
2023-03-22T12:10:05.865Z,9.80
2023-03-22T12:11:05.355Z,7.70
2023-03-22T12:12:05.383Z,11.00
2023-03-22T12:13:05.328Z,7.20
2023-03-22T12:14:05.292Z,8.30
2023-03-22T12:15:05.335Z,11.10
2023-03-22T12:16:05.328Z,6.30
2023-03-22T12:17:05.260Z,6.70
2023-03-22T12:18:07.695Z,6.40
2023-03-22T12:19:06.271Z,8.00
2023-03-22T12:20:05.269Z,6.30
2023-03-22T12:21:05.248Z,7.30
2023-03-22T12:22:05.239Z,6.00
2023-03-22T12:23:05.219Z,5.90
2023-03-22T12:24:05.219Z,5.70
2023-03-22T12:25:05.234Z,7.10
2023-03-22T12:26:05.210Z,6.50
2023-03-22T12:27:05.252Z,4.90
2023-03-22T12:28:05.265Z,4.30
2023-03-22T12:29:05.187Z,4.70
2023-03-22T12:30:05.135Z,4.00
2023-03-22T12:31:05.135Z,6.80
2023-03-22T12:32:05.142Z,5.20
2023-03-22T12:33:05.116Z,6.10
2023-03-22T12:34:05.491Z,6.00
2023-03-22T12:35:16.742Z,3.30
2023-03-22T12:36:07.150Z,5.50
2023-03-22T12:37:05.096Z,3.80
2023-03-22T12:38:05.076Z,5.30
2023-03-22T12:39:05.046Z,4.70
2023-03-22T12:40:05.066Z,4.40
2023-03-22T12:41:05.062Z,5.00
2023-03-22T12:42:05.036Z,6.20
2023-03-22T12:43:04.990Z,5.20
2023-03-22T12:44:04.998Z,7.20
2023-03-22T12:45:05.854Z,8.10
2023-03-22T12:46:06.025Z,6.50
2023-03-22T12:47:05.059Z,5.60